sensor_id;sensor_type;location;lat;lon;timestamp;P1;durP1;ratioP1;P2;durP2;ratioP2
24373;SDS011;12498;50.880;12.096;2022-08-19T00:00:28;53.95;;;38.45;;
24373;SDS011;12498;50.880;12.096;2022-08-19T00:02:54;52.80;;;38.50;;
24373;SDS011;12498;50.880;12.096;2022-08-19T00:05:19;53.67;;;38.63;;
24373;SDS011;12498;50.880;12.096;2022-08-19T00:07:48;48.40;;;36.92;;
24373;SDS011;12498;50.880;12.096;2022-08-19T00:10:15;47.63;;;35.83;;
24373;SDS011;12498;50.880;12.096;2022-08-19T00:12:42;45.97;;;35.00;;
24373;SDS011;12498;50.880;12.096;2022-08-19T00:15:08;47.00;;;34.47;;
24373;SDS011;12498;50.880;12.096;2022-08-19T00:17:41;45.05;;;36.20;;
24373;SDS011;12498;50.880;12.096;2022-08-19T00:20:09;47.50;;;35.45;;
24373;SDS011;12498;50.880;12.096;2022-08-19T00:22:37;43.35;;;33.90;;
24373;SDS011;12498;50.880;12.096;2022-08-19T00:25:03;43.40;;;34.50;;
24373;SDS011;12498;50.880;12.096;2022-08-19T00:27:30;48.05;;;34.38;;
24373;SDS011;12498;50.880;12.096;2022-08-19T00:29:56;42.45;;;33.95;;
24373;SDS011;12498;50.880;12.096;2022-08-19T00:32:24;47.13;;;36.10;;
24373;SDS011;12498;50.880;12.096;2022-08-19T00:34:50;47.45;;;34.67;;
24373;SDS011;12498;50.880;12.096;2022-08-19T00:37:19;47.85;;;35.63;;
24373;SDS011;12498;50.880;12.096;2022-08-19T00:39:47;48.60;;;37.03;;
24373;SDS011;12498;50.880;12.096;2022-08-19T00:42:15;48.70;;;38.03;;
24373;SDS011;12498;50.880;12.096;2022-08-19T00:44:41;49.90;;;37.03;;
24373;SDS011;12498;50.880;12.096;2022-08-19T00:47:08;48.60;;;36.65;;
24373;SDS011;12498;50.880;12.096;2022-08-19T00:49:35;47.70;;;36.92;;
24373;SDS011;12498;50.880;12.096;2022-08-19T00:52:09;47.88;;;36.90;;
24373;SDS011;12498;50.880;12.096;2022-08-19T00:54:39;47.95;;;36.65;;
24373;SDS011;12498;50.880;12.096;2022-08-19T00:57:08;51.50;;;38.13;;
24373;SDS011;12498;50.880;12.096;2022-08-19T00:59:40;51.60;;;39.13;;
24373;SDS011;12498;50.880;12.096;2022-08-19T01:02:07;56.58;;;39.25;;
24373;SDS011;12498;50.880;12.096;2022-08-19T01:04:33;55.92;;;38.03;;
24373;SDS011;12498;50.880;12.096;2022-08-19T01:06:59;51.03;;;39.38;;
24373;SDS011;12498;50.880;12.096;2022-08-19T01:09:26;47.30;;;37.63;;
24373;SDS011;12498;50.880;12.096;2022-08-19T01:11:52;55.92;;;39.30;;
24373;SDS011;12498;50.880;12.096;2022-08-19T01:14:17;55.70;;;40.45;;
24373;SDS011;12498;50.880;12.096;2022-08-19T01:16:44;58.63;;;41.10;;
24373;SDS011;12498;50.880;12.096;2022-08-19T01:19:54;57.28;;;41.97;;
24373;SDS011;12498;50.880;12.096;2022-08-19T01:22:08;57.85;;;40.85;;
24373;SDS011;12498;50.880;12.096;2022-08-19T01:24:52;54.25;;;40.30;;
24373;SDS011;12498;50.880;12.096;2022-08-19T01:27:17;58.88;;;42.05;;
24373;SDS011;12498;50.880;12.096;2022-08-19T01:29:44;62.70;;;40.95;;
24373;SDS011;12498;50.880;12.096;2022-08-19T01:32:14;62.33;;;43.08;;
24373;SDS011;12498;50.880;12.096;2022-08-19T01:34:41;53.25;;;40.40;;
24373;SDS011;12498;50.880;12.096;2022-08-19T01:37:12;62.50;;;43.10;;
24373;SDS011;12498;50.880;12.096;2022-08-19T01:39:39;57.88;;;41.78;;
24373;SDS011;12498;50.880;12.096;2022-08-19T01:42:07;57.35;;;43.50;;
24373;SDS011;12498;50.880;12.096;2022-08-19T01:44:35;55.97;;;41.55;;
24373;SDS011;12498;50.880;12.096;2022-08-19T01:47:02;58.78;;;43.08;;
24373;SDS011;12498;50.880;12.096;2022-08-19T01:49:28;58.67;;;41.70;;
24373;SDS011;12498;50.880;12.096;2022-08-19T01:51:54;57.08;;;41.97;;
24373;SDS011;12498;50.880;12.096;2022-08-19T01:54:21;56.38;;;42.83;;
24373;SDS011;12498;50.880;12.096;2022-08-19T01:56:49;59.05;;;43.00;;
24373;SDS011;12498;50.880;12.096;2022-08-19T01:59:18;60.25;;;44.25;;
24373;SDS011;12498;50.880;12.096;2022-08-19T02:01:46;57.17;;;42.28;;
24373;SDS011;12498;50.880;12.096;2022-08-19T02:04:11;59.65;;;43.58;;
24373;SDS011;12498;50.880;12.096;2022-08-19T02:06:37;56.88;;;43.53;;
24373;SDS011;12498;50.880;12.096;2022-08-19T02:09:04;56.95;;;43.20;;
24373;SDS011;12498;50.880;12.096;2022-08-19T02:11:32;59.45;;;43.80;;
24373;SDS011;12498;50.880;12.096;2022-08-19T02:14:00;56.03;;;43.13;;
24373;SDS011;12498;50.880;12.096;2022-08-19T02:16:27;55.58;;;42.75;;
24373;SDS011;12498;50.880;12.096;2022-08-19T02:18:56;57.17;;;42.75;;
24373;SDS011;12498;50.880;12.096;2022-08-19T02:21:29;59.08;;;45.97;;
24373;SDS011;12498;50.880;12.096;2022-08-19T02:23:55;57.10;;;45.40;;
24373;SDS011;12498;50.880;12.096;2022-08-19T02:26:27;58.95;;;45.47;;
24373;SDS011;12498;50.880;12.096;2022-08-19T02:29:18;59.92;;;45.28;;
24373;SDS011;12498;50.880;12.096;2022-08-19T02:31:43;62.58;;;44.90;;
24373;SDS011;12498;50.880;12.096;2022-08-19T02:34:09;62.42;;;45.13;;
24373;SDS011;12498;50.880;12.096;2022-08-19T02:36:35;58.28;;;45.58;;
24373;SDS011;12498;50.880;12.096;2022-08-19T02:39:00;61.20;;;45.72;;
24373;SDS011;12498;50.880;12.096;2022-08-19T02:41:27;55.85;;;44.35;;
24373;SDS011;12498;50.880;12.096;2022-08-19T02:43:56;59.13;;;46.40;;
24373;SDS011;12498;50.880;12.096;2022-08-19T02:46:24;62.17;;;46.13;;
24373;SDS011;12498;50.880;12.096;2022-08-19T02:48:52;62.20;;;46.13;;
24373;SDS011;12498;50.880;12.096;2022-08-19T02:51:22;61.42;;;46.10;;
24373;SDS011;12498;50.880;12.096;2022-08-19T02:53:53;62.55;;;45.38;;
24373;SDS011;12498;50.880;12.096;2022-08-19T02:56:19;61.88;;;45.08;;
24373;SDS011;12498;50.880;12.096;2022-08-19T02:58:46;61.15;;;45.10;;
24373;SDS011;12498;50.880;12.096;2022-08-19T03:01:20;58.95;;;45.30;;
24373;SDS011;12498;50.880;12.096;2022-08-19T03:03:47;60.60;;;45.53;;
24373;SDS011;12498;50.880;12.096;2022-08-19T03:06:14;64.07;;;46.25;;
24373;SDS011;12498;50.880;12.096;2022-08-19T03:08:44;67.68;;;47.95;;
24373;SDS011;12498;50.880;12.096;2022-08-19T03:11:23;57.92;;;44.58;;
24373;SDS011;12498;50.880;12.096;2022-08-19T03:13:51;63.03;;;46.55;;
24373;SDS011;12498;50.880;12.096;2022-08-19T03:16:18;60.50;;;47.00;;
24373;SDS011;12498;50.880;12.096;2022-08-19T03:18:45;59.40;;;44.88;;
24373;SDS011;12498;50.880;12.096;2022-08-19T03:21:15;60.53;;;44.53;;
24373;SDS011;12498;50.880;12.096;2022-08-19T03:23:42;62.58;;;45.60;;
24373;SDS011;12498;50.880;12.096;2022-08-19T03:26:08;58.63;;;44.55;;
24373;SDS011;12498;50.880;12.096;2022-08-19T03:28:34;58.47;;;44.45;;
24373;SDS011;12498;50.880;12.096;2022-08-19T03:31:02;59.10;;;43.95;;
24373;SDS011;12498;50.880;12.096;2022-08-19T03:33:29;55.92;;;43.95;;
24373;SDS011;12498;50.880;12.096;2022-08-19T03:36:06;59.30;;;45.55;;
24373;SDS011;12498;50.880;12.096;2022-08-19T03:38:35;58.88;;;43.67;;
24373;SDS011;12498;50.880;12.096;2022-08-19T03:41:07;59.72;;;44.70;;
24373;SDS011;12498;50.880;12.096;2022-08-19T03:43:35;60.20;;;46.03;;
24373;SDS011;12498;50.880;12.096;2022-08-19T03:46:03;60.63;;;46.42;;
24373;SDS011;12498;50.880;12.096;2022-08-19T03:48:32;63.08;;;47.00;;
24373;SDS011;12498;50.880;12.096;2022-08-19T03:50:58;62.50;;;46.67;;
24373;SDS011;12498;50.880;12.096;2022-08-19T03:53:25;63.20;;;47.85;;
24373;SDS011;12498;50.880;12.096;2022-08-19T03:55:52;65.13;;;48.63;;
24373;SDS011;12498;50.880;12.096;2022-08-19T03:58:18;66.32;;;50.03;;
24373;SDS011;12498;50.880;12.096;2022-08-19T04:00:44;66.63;;;50.05;;
24373;SDS011;12498;50.880;12.096;2022-08-19T04:03:10;68.43;;;49.75;;
24373;SDS011;12498;50.880;12.096;2022-08-19T04:05:36;64.45;;;49.85;;
24373;SDS011;12498;50.880;12.096;2022-08-19T04:08:02;64.55;;;50.80;;
24373;SDS011;12498;50.880;12.096;2022-08-19T04:10:30;68.50;;;50.83;;
24373;SDS011;12498;50.880;12.096;2022-08-19T04:13:00;64.93;;;50.53;;
24373;SDS011;12498;50.880;12.096;2022-08-19T04:15:26;68.05;;;50.33;;
24373;SDS011;12498;50.880;12.096;2022-08-19T04:17:53;66.93;;;51.47;;
24373;SDS011;12498;50.880;12.096;2022-08-19T04:20:19;65.22;;;51.05;;
24373;SDS011;12498;50.880;12.096;2022-08-19T04:22:45;63.92;;;49.97;;
24373;SDS011;12498;50.880;12.096;2022-08-19T04:25:11;69.45;;;52.58;;
24373;SDS011;12498;50.880;12.096;2022-08-19T04:27:36;65.78;;;51.15;;
24373;SDS011;12498;50.880;12.096;2022-08-19T04:30:03;73.82;;;53.05;;
24373;SDS011;12498;50.880;12.096;2022-08-19T04:32:28;72.60;;;52.10;;
24373;SDS011;12498;50.880;12.096;2022-08-19T04:34:56;72.03;;;53.40;;
24373;SDS011;12498;50.880;12.096;2022-08-19T04:37:23;69.40;;;53.08;;
24373;SDS011;12498;50.880;12.096;2022-08-19T04:39:51;71.53;;;51.30;;
24373;SDS011;12498;50.880;12.096;2022-08-19T04:42:35;68.90;;;51.78;;
24373;SDS011;12498;50.880;12.096;2022-08-19T04:45:05;68.88;;;51.40;;
24373;SDS011;12498;50.880;12.096;2022-08-19T04:47:32;69.90;;;52.10;;
24373;SDS011;12498;50.880;12.096;2022-08-19T04:49:58;68.00;;;50.38;;
24373;SDS011;12498;50.880;12.096;2022-08-19T04:52:23;72.63;;;52.10;;
24373;SDS011;12498;50.880;12.096;2022-08-19T04:54:49;69.60;;;50.42;;
24373;SDS011;12498;50.880;12.096;2022-08-19T04:57:15;73.43;;;52.83;;
24373;SDS011;12498;50.880;12.096;2022-08-19T04:59:40;67.40;;;51.25;;
24373;SDS011;12498;50.880;12.096;2022-08-19T05:02:06;66.95;;;52.50;;
24373;SDS011;12498;50.880;12.096;2022-08-19T05:04:33;69.40;;;51.10;;
24373;SDS011;12498;50.880;12.096;2022-08-19T05:07:00;69.03;;;50.95;;
24373;SDS011;12498;50.880;12.096;2022-08-19T05:09:26;75.07;;;52.95;;
24373;SDS011;12498;50.880;12.096;2022-08-19T05:11:52;72.25;;;53.80;;
24373;SDS011;12498;50.880;12.096;2022-08-19T05:14:18;76.32;;;54.80;;
24373;SDS011;12498;50.880;12.096;2022-08-19T05:16:45;77.43;;;56.03;;
24373;SDS011;12498;50.880;12.096;2022-08-19T05:19:12;79.22;;;55.95;;
24373;SDS011;12498;50.880;12.096;2022-08-19T05:21:56;84.47;;;57.58;;
24373;SDS011;12498;50.880;12.096;2022-08-19T05:24:48;79.30;;;57.15;;
24373;SDS011;12498;50.880;12.096;2022-08-19T05:27:13;79.15;;;57.30;;
24373;SDS011;12498;50.880;12.096;2022-08-19T05:29:39;77.07;;;55.97;;
24373;SDS011;12498;50.880;12.096;2022-08-19T05:32:05;77.72;;;56.97;;
24373;SDS011;12498;50.880;12.096;2022-08-19T05:34:34;72.13;;;54.75;;
24373;SDS011;12498;50.880;12.096;2022-08-19T05:37:01;72.70;;;54.35;;
24373;SDS011;12498;50.880;12.096;2022-08-19T05:39:28;85.20;;;58.50;;
24373;SDS011;12498;50.880;12.096;2022-08-19T05:44:28;81.38;;;58.85;;
24373;SDS011;12498;50.880;12.096;2022-08-19T05:46:56;80.38;;;55.70;;
24373;SDS011;12498;50.880;12.096;2022-08-19T05:49:24;79.38;;;55.50;;
24373;SDS011;12498;50.880;12.096;2022-08-19T05:51:52;81.32;;;57.60;;
24373;SDS011;12498;50.880;12.096;2022-08-19T05:54:19;82.25;;;57.92;;
24373;SDS011;12498;50.880;12.096;2022-08-19T05:56:48;87.88;;;57.40;;
24373;SDS011;12498;50.880;12.096;2022-08-19T05:59:16;80.63;;;58.85;;
24373;SDS011;12498;50.880;12.096;2022-08-19T06:01:43;87.05;;;57.88;;
24373;SDS011;12498;50.880;12.096;2022-08-19T06:04:10;90.17;;;60.23;;
24373;SDS011;12498;50.880;12.096;2022-08-19T06:06:38;84.57;;;58.58;;
24373;SDS011;12498;50.880;12.096;2022-08-19T06:09:04;94.55;;;59.38;;
24373;SDS011;12498;50.880;12.096;2022-08-19T06:11:35;85.40;;;60.28;;
24373;SDS011;12498;50.880;12.096;2022-08-19T06:14:06;86.60;;;59.70;;
24373;SDS011;12498;50.880;12.096;2022-08-19T06:16:34;87.90;;;62.35;;
24373;SDS011;12498;50.880;12.096;2022-08-19T06:21:31;84.22;;;59.92;;
24373;SDS011;12498;50.880;12.096;2022-08-19T06:23:58;84.20;;;58.67;;
24373;SDS011;12498;50.880;12.096;2022-08-19T06:26:24;85.82;;;60.20;;
24373;SDS011;12498;50.880;12.096;2022-08-19T06:28:51;88.70;;;59.17;;
24373;SDS011;12498;50.880;12.096;2022-08-19T06:31:18;87.32;;;59.90;;
24373;SDS011;12498;50.880;12.096;2022-08-19T06:33:47;77.65;;;57.65;;
24373;SDS011;12498;50.880;12.096;2022-08-19T06:36:18;83.40;;;58.75;;
24373;SDS011;12498;50.880;12.096;2022-08-19T06:38:52;87.95;;;59.00;;
24373;SDS011;12498;50.880;12.096;2022-08-19T06:41:19;86.50;;;59.45;;
24373;SDS011;12498;50.880;12.096;2022-08-19T06:43:44;80.40;;;57.85;;
24373;SDS011;12498;50.880;12.096;2022-08-19T06:46:11;87.93;;;58.20;;
24373;SDS011;12498;50.880;12.096;2022-08-19T06:48:38;91.78;;;59.35;;
24373;SDS011;12498;50.880;12.096;2022-08-19T06:51:04;83.93;;;59.05;;
24373;SDS011;12498;50.880;12.096;2022-08-19T06:53:31;84.93;;;59.20;;
24373;SDS011;12498;50.880;12.096;2022-08-19T06:55:57;89.60;;;59.60;;
24373;SDS011;12498;50.880;12.096;2022-08-19T06:58:25;81.57;;;57.75;;
24373;SDS011;12498;50.880;12.096;2022-08-19T07:00:51;80.07;;;58.20;;
24373;SDS011;12498;50.880;12.096;2022-08-19T07:03:16;84.97;;;59.10;;
24373;SDS011;12498;50.880;12.096;2022-08-19T07:05:42;82.30;;;57.88;;
24373;SDS011;12498;50.880;12.096;2022-08-19T07:08:09;78.30;;;56.83;;
24373;SDS011;12498;50.880;12.096;2022-08-19T07:10:35;85.80;;;58.45;;
24373;SDS011;12498;50.880;12.096;2022-08-19T07:13:01;86.43;;;58.25;;
24373;SDS011;12498;50.880;12.096;2022-08-19T07:15:28;82.15;;;55.75;;
24373;SDS011;12498;50.880;12.096;2022-08-19T07:17:54;82.05;;;55.78;;
24373;SDS011;12498;50.880;12.096;2022-08-19T07:20:19;74.38;;;52.35;;
24373;SDS011;12498;50.880;12.096;2022-08-19T07:22:45;76.45;;;51.88;;
24373;SDS011;12498;50.880;12.096;2022-08-19T07:25:11;78.05;;;54.17;;
24373;SDS011;12498;50.880;12.096;2022-08-19T07:27:38;79.60;;;53.47;;
24373;SDS011;12498;50.880;12.096;2022-08-19T07:30:04;79.25;;;53.40;;
24373;SDS011;12498;50.880;12.096;2022-08-19T07:32:30;71.15;;;49.95;;
24373;SDS011;12498;50.880;12.096;2022-08-19T07:34:55;70.68;;;48.53;;
24373;SDS011;12498;50.880;12.096;2022-08-19T07:37:21;71.20;;;47.90;;
24373;SDS011;12498;50.880;12.096;2022-08-19T07:39:47;70.45;;;47.80;;
24373;SDS011;12498;50.880;12.096;2022-08-19T07:42:13;65.78;;;46.58;;
24373;SDS011;12498;50.880;12.096;2022-08-19T07:44:39;65.40;;;46.35;;
24373;SDS011;12498;50.880;12.096;2022-08-19T07:47:06;62.90;;;45.78;;
24373;SDS011;12498;50.880;12.096;2022-08-19T07:49:32;63.70;;;45.97;;
24373;SDS011;12498;50.880;12.096;2022-08-19T07:51:59;63.78;;;45.10;;
24373;SDS011;12498;50.880;12.096;2022-08-19T07:54:28;63.25;;;44.20;;
24373;SDS011;12498;50.880;12.096;2022-08-19T07:56:55;65.82;;;44.42;;
24373;SDS011;12498;50.880;12.096;2022-08-19T07:59:22;63.03;;;45.03;;
24373;SDS011;12498;50.880;12.096;2022-08-19T08:01:50;64.97;;;44.70;;
24373;SDS011;12498;50.880;12.096;2022-08-19T08:04:16;63.65;;;44.22;;
24373;SDS011;12498;50.880;12.096;2022-08-19T08:07:01;63.28;;;43.30;;
24373;SDS011;12498;50.880;12.096;2022-08-19T08:09:47;59.95;;;41.78;;
24373;SDS011;12498;50.880;12.096;2022-08-19T08:12:46;58.50;;;42.10;;
24373;SDS011;12498;50.880;12.096;2022-08-19T08:15:12;63.17;;;44.33;;
24373;SDS011;12498;50.880;12.096;2022-08-19T08:17:43;67.53;;;49.47;;
24373;SDS011;12498;50.880;12.096;2022-08-19T08:20:09;58.75;;;42.90;;
24373;SDS011;12498;50.880;12.096;2022-08-19T08:22:35;63.17;;;43.17;;
24373;SDS011;12498;50.880;12.096;2022-08-19T08:25:22;64.55;;;44.17;;
24373;SDS011;12498;50.880;12.096;2022-08-19T08:27:48;57.22;;;41.15;;
24373;SDS011;12498;50.880;12.096;2022-08-19T08:32:45;56.80;;;41.28;;
24373;SDS011;12498;50.880;12.096;2022-08-19T08:35:12;58.47;;;42.00;;
24373;SDS011;12498;50.880;12.096;2022-08-19T08:37:41;57.42;;;41.55;;
24373;SDS011;12498;50.880;12.096;2022-08-19T08:40:54;53.00;;;41.20;;
24373;SDS011;12498;50.880;12.096;2022-08-19T08:45:47;58.22;;;42.38;;
24373;SDS011;12498;50.880;12.096;2022-08-19T08:48:27;62.83;;;43.50;;
24373;SDS011;12498;50.880;12.096;2022-08-19T08:50:56;57.05;;;41.75;;
24373;SDS011;12498;50.880;12.096;2022-08-19T08:53:23;63.95;;;41.55;;
24373;SDS011;12498;50.880;12.096;2022-08-19T08:55:50;57.95;;;41.88;;
24373;SDS011;12498;50.880;12.096;2022-08-19T08:58:17;58.35;;;42.20;;
24373;SDS011;12498;50.880;12.096;2022-08-19T09:00:50;59.40;;;43.92;;
24373;SDS011;12498;50.880;12.096;2022-08-19T09:03:17;59.92;;;41.92;;
24373;SDS011;12498;50.880;12.096;2022-08-19T09:06:03;60.90;;;44.30;;
24373;SDS011;12498;50.880;12.096;2022-08-19T09:11:06;63.20;;;44.22;;
24373;SDS011;12498;50.880;12.096;2022-08-19T09:13:41;60.63;;;43.67;;
24373;SDS011;12498;50.880;12.096;2022-08-19T09:16:18;58.55;;;43.90;;
24373;SDS011;12498;50.880;12.096;2022-08-19T09:18:49;64.57;;;45.42;;
24373;SDS011;12498;50.880;12.096;2022-08-19T09:21:18;63.30;;;47.85;;
24373;SDS011;12498;50.880;12.096;2022-08-19T09:23:46;65.65;;;47.97;;
24373;SDS011;12498;50.880;12.096;2022-08-19T09:26:13;66.35;;;46.47;;
24373;SDS011;12498;50.880;12.096;2022-08-19T09:28:42;66.88;;;49.03;;
24373;SDS011;12498;50.880;12.096;2022-08-19T09:31:13;68.45;;;49.35;;
24373;SDS011;12498;50.880;12.096;2022-08-19T09:33:40;74.90;;;47.80;;
24373;SDS011;12498;50.880;12.096;2022-08-19T09:36:09;61.17;;;48.20;;
24373;SDS011;12498;50.880;12.096;2022-08-19T09:38:36;66.65;;;48.40;;
24373;SDS011;12498;50.880;12.096;2022-08-19T09:41:05;64.13;;;46.55;;
24373;SDS011;12498;50.880;12.096;2022-08-19T09:43:33;58.13;;;44.28;;
24373;SDS011;12498;50.880;12.096;2022-08-19T09:46:02;57.63;;;41.65;;
24373;SDS011;12498;50.880;12.096;2022-08-19T09:48:30;55.33;;;41.70;;
24373;SDS011;12498;50.880;12.096;2022-08-19T09:51:01;52.05;;;38.90;;
24373;SDS011;12498;50.880;12.096;2022-08-19T09:53:28;55.65;;;38.95;;
24373;SDS011;12498;50.880;12.096;2022-08-19T09:55:57;55.35;;;37.88;;
24373;SDS011;12498;50.880;12.096;2022-08-19T09:58:22;53.65;;;39.17;;
24373;SDS011;12498;50.880;12.096;2022-08-19T10:00:52;53.53;;;37.28;;
24373;SDS011;12498;50.880;12.096;2022-08-19T10:03:22;61.10;;;37.92;;
24373;SDS011;12498;50.880;12.096;2022-08-19T10:05:48;52.83;;;37.05;;
24373;SDS011;12498;50.880;12.096;2022-08-19T10:08:15;49.63;;;35.78;;
24373;SDS011;12498;50.880;12.096;2022-08-19T10:10:42;47.50;;;35.08;;
24373;SDS011;12498;50.880;12.096;2022-08-19T10:13:09;44.90;;;33.45;;
24373;SDS011;12498;50.880;12.096;2022-08-19T10:15:35;50.17;;;34.88;;
24373;SDS011;12498;50.880;12.096;2022-08-19T10:18:00;41.08;;;29.35;;
24373;SDS011;12498;50.880;12.096;2022-08-19T10:20:26;47.80;;;31.92;;
24373;SDS011;12498;50.880;12.096;2022-08-19T10:22:52;41.05;;;30.05;;
24373;SDS011;12498;50.880;12.096;2022-08-19T10:25:17;33.83;;;24.88;;
24373;SDS011;12498;50.880;12.096;2022-08-19T10:27:43;28.00;;;21.02;;
24373;SDS011;12498;50.880;12.096;2022-08-19T10:30:09;28.00;;;19.65;;
24373;SDS011;12498;50.880;12.096;2022-08-19T10:32:35;24.92;;;19.40;;
24373;SDS011;12498;50.880;12.096;2022-08-19T10:35:02;25.88;;;17.95;;
24373;SDS011;12498;50.880;12.096;2022-08-19T10:37:32;26.70;;;18.38;;
24373;SDS011;12498;50.880;12.096;2022-08-19T10:39:59;25.83;;;18.00;;
24373;SDS011;12498;50.880;12.096;2022-08-19T10:42:24;22.58;;;17.77;;
24373;SDS011;12498;50.880;12.096;2022-08-19T10:44:50;27.05;;;18.48;;
24373;SDS011;12498;50.880;12.096;2022-08-19T10:47:16;24.13;;;18.63;;
24373;SDS011;12498;50.880;12.096;2022-08-19T10:49:41;22.48;;;16.98;;
24373;SDS011;12498;50.880;12.096;2022-08-19T10:52:40;23.95;;;18.20;;
24373;SDS011;12498;50.880;12.096;2022-08-19T10:55:07;25.48;;;18.48;;
24373;SDS011;12498;50.880;12.096;2022-08-19T10:57:52;23.33;;;17.00;;
24373;SDS011;12498;50.880;12.096;2022-08-19T11:00:18;25.33;;;17.73;;
24373;SDS011;12498;50.880;12.096;2022-08-19T11:02:45;27.27;;;17.38;;
24373;SDS011;12498;50.880;12.096;2022-08-19T11:05:11;24.33;;;16.65;;
24373;SDS011;12498;50.880;12.096;2022-08-19T11:07:38;24.17;;;17.10;;
24373;SDS011;12498;50.880;12.096;2022-08-19T11:10:05;23.50;;;16.60;;
24373;SDS011;12498;50.880;12.096;2022-08-19T11:12:31;23.05;;;14.88;;
24373;SDS011;12498;50.880;12.096;2022-08-19T11:14:58;21.00;;;13.52;;
24373;SDS011;12498;50.880;12.096;2022-08-19T11:17:24;19.58;;;14.05;;
24373;SDS011;12498;50.880;12.096;2022-08-19T11:19:49;24.60;;;15.50;;
24373;SDS011;12498;50.880;12.096;2022-08-19T11:22:15;19.13;;;14.02;;
24373;SDS011;12498;50.880;12.096;2022-08-19T11:24:42;17.23;;;13.63;;
24373;SDS011;12498;50.880;12.096;2022-08-19T11:27:08;17.48;;;12.55;;
24373;SDS011;12498;50.880;12.096;2022-08-19T11:29:35;18.27;;;12.25;;
24373;SDS011;12498;50.880;12.096;2022-08-19T11:32:04;15.77;;;10.85;;
24373;SDS011;12498;50.880;12.096;2022-08-19T11:34:33;20.70;;;11.68;;
24373;SDS011;12498;50.880;12.096;2022-08-19T11:37:00;15.13;;;9.82;;
24373;SDS011;12498;50.880;12.096;2022-08-19T11:39:28;11.20;;;9.32;;
24373;SDS011;12498;50.880;12.096;2022-08-19T11:41:57;15.77;;;10.10;;
24373;SDS011;12498;50.880;12.096;2022-08-19T11:44:23;12.35;;;9.23;;
24373;SDS011;12498;50.880;12.096;2022-08-19T11:46:50;11.15;;;9.95;;
24373;SDS011;12498;50.880;12.096;2022-08-19T11:49:17;14.07;;;10.80;;
24373;SDS011;12498;50.880;12.096;2022-08-19T11:51:44;12.50;;;9.85;;
24373;SDS011;12498;50.880;12.096;2022-08-19T11:54:12;14.05;;;10.27;;
24373;SDS011;12498;50.880;12.096;2022-08-19T11:56:39;13.40;;;10.93;;
24373;SDS011;12498;50.880;12.096;2022-08-19T11:59:05;15.32;;;12.15;;
24373;SDS011;12498;50.880;12.096;2022-08-19T12:01:32;17.30;;;11.43;;
24373;SDS011;12498;50.880;12.096;2022-08-19T12:03:58;13.98;;;11.30;;
24373;SDS011;12498;50.880;12.096;2022-08-19T12:06:26;10.95;;;9.73;;
24373;SDS011;12498;50.880;12.096;2022-08-19T12:08:57;13.75;;;9.85;;
24373;SDS011;12498;50.880;12.096;2022-08-19T12:11:26;13.90;;;10.68;;
24373;SDS011;12498;50.880;12.096;2022-08-19T12:13:52;13.23;;;9.77;;
24373;SDS011;12498;50.880;12.096;2022-08-19T12:16:26;14.20;;;10.40;;
24373;SDS011;12498;50.880;12.096;2022-08-19T12:18:53;15.32;;;10.63;;
24373;SDS011;12498;50.880;12.096;2022-08-19T12:21:20;14.60;;;10.35;;
24373;SDS011;12498;50.880;12.096;2022-08-19T12:23:53;13.02;;;9.57;;
24373;SDS011;12498;50.880;12.096;2022-08-19T12:26:20;12.60;;;9.38;;
24373;SDS011;12498;50.880;12.096;2022-08-19T12:28:46;17.25;;;9.40;;
24373;SDS011;12498;50.880;12.096;2022-08-19T12:31:13;12.90;;;8.90;;
24373;SDS011;12498;50.880;12.096;2022-08-19T12:33:40;12.05;;;8.05;;
24373;SDS011;12498;50.880;12.096;2022-08-19T12:36:08;11.32;;;8.20;;
24373;SDS011;12498;50.880;12.096;2022-08-19T12:38:35;11.13;;;8.02;;
24373;SDS011;12498;50.880;12.096;2022-08-19T12:41:02;10.73;;;7.55;;
24373;SDS011;12498;50.880;12.096;2022-08-19T12:43:31;11.73;;;8.13;;
24373;SDS011;12498;50.880;12.096;2022-08-19T12:45:57;11.05;;;8.18;;
24373;SDS011;12498;50.880;12.096;2022-08-19T12:48:23;11.02;;;8.25;;
24373;SDS011;12498;50.880;12.096;2022-08-19T12:50:48;10.23;;;7.70;;
24373;SDS011;12498;50.880;12.096;2022-08-19T12:53:14;13.15;;;8.02;;
24373;SDS011;12498;50.880;12.096;2022-08-19T12:55:40;16.77;;;8.65;;
24373;SDS011;12498;50.880;12.096;2022-08-19T12:58:07;12.15;;;8.10;;
24373;SDS011;12498;50.880;12.096;2022-08-19T13:00:33;11.43;;;8.52;;
24373;SDS011;12498;50.880;12.096;2022-08-19T13:03:02;13.95;;;8.90;;
24373;SDS011;12498;50.880;12.096;2022-08-19T13:05:29;11.60;;;8.53;;
24373;SDS011;12498;50.880;12.096;2022-08-19T13:07:57;14.27;;;8.57;;
24373;SDS011;12498;50.880;12.096;2022-08-19T13:10:25;12.93;;;9.00;;
24373;SDS011;12498;50.880;12.096;2022-08-19T13:12:54;12.98;;;8.85;;
24373;SDS011;12498;50.880;12.096;2022-08-19T13:15:20;13.85;;;9.05;;
24373;SDS011;12498;50.880;12.096;2022-08-19T13:17:48;10.90;;;8.18;;
24373;SDS011;12498;50.880;12.096;2022-08-19T13:20:16;14.63;;;9.30;;
24373;SDS011;12498;50.880;12.096;2022-08-19T13:22:44;16.37;;;10.07;;
24373;SDS011;12498;50.880;12.096;2022-08-19T13:25:10;19.10;;;9.75;;
24373;SDS011;12498;50.880;12.096;2022-08-19T13:27:37;15.38;;;9.70;;
24373;SDS011;12498;50.880;12.096;2022-08-19T13:30:05;14.00;;;9.82;;
24373;SDS011;12498;50.880;12.096;2022-08-19T13:32:52;17.20;;;10.10;;
24373;SDS011;12498;50.880;12.096;2022-08-19T13:35:36;16.20;;;8.77;;
24373;SDS011;12498;50.880;12.096;2022-08-19T13:38:07;12.63;;;8.48;;
24373;SDS011;12498;50.880;12.096;2022-08-19T13:40:33;12.98;;;8.35;;
24373;SDS011;12498;50.880;12.096;2022-08-19T13:43:00;15.15;;;8.00;;
24373;SDS011;12498;50.880;12.096;2022-08-19T13:45:27;12.93;;;7.32;;
24373;SDS011;12498;50.880;12.096;2022-08-19T13:47:54;12.68;;;7.95;;
24373;SDS011;12498;50.880;12.096;2022-08-19T13:50:23;17.55;;;8.10;;
24373;SDS011;12498;50.880;12.096;2022-08-19T13:52:53;12.07;;;8.27;;
24373;SDS011;12498;50.880;12.096;2022-08-19T13:55:19;9.55;;;6.80;;
24373;SDS011;12498;50.880;12.096;2022-08-19T13:57:49;12.48;;;6.90;;
24373;SDS011;12498;50.880;12.096;2022-08-19T14:00:19;8.27;;;6.45;;
24373;SDS011;12498;50.880;12.096;2022-08-19T14:02:46;9.85;;;7.13;;
24373;SDS011;12498;50.880;12.096;2022-08-19T14:05:16;13.88;;;6.97;;
24373;SDS011;12498;50.880;12.096;2022-08-19T14:07:43;9.98;;;7.28;;
24373;SDS011;12498;50.880;12.096;2022-08-19T14:10:09;9.52;;;6.88;;
24373;SDS011;12498;50.880;12.096;2022-08-19T14:12:36;14.05;;;6.65;;
24373;SDS011;12498;50.880;12.096;2022-08-19T14:15:02;9.43;;;6.75;;
24373;SDS011;12498;50.880;12.096;2022-08-19T14:17:30;11.10;;;7.35;;
24373;SDS011;12498;50.880;12.096;2022-08-19T14:19:56;10.38;;;6.78;;
24373;SDS011;12498;50.880;12.096;2022-08-19T14:22:31;8.95;;;6.57;;
24373;SDS011;12498;50.880;12.096;2022-08-19T14:24:57;8.38;;;6.60;;
24373;SDS011;12498;50.880;12.096;2022-08-19T14:27:23;12.82;;;6.97;;
24373;SDS011;12498;50.880;12.096;2022-08-19T14:29:50;10.43;;;7.30;;